CMA CGM Aristote — MRPN4 — position and weather

sailwx.info

Track history (hours):
 
Tides and Currents Weather Stations Pressure Air Temp Water Temp Dewpoint Dewpoint Depression Visibility Wind Speed Wind Dir Waves Ship Positions

CMA CGM Aristote

Last reported at 2014-Aug-16 05:33 UTC. Time now 2014-Aug-30 18:29 UTC.
Position N 17°31' W 063°05'.
Warning: this ship's position is 14 days out of date.

Length 170 m; draft 9.2 m.

Type: Ship (hazmat cat A). MMSI: 235054581.

Date/timePositionNaut miles runAvg speedWind from/ knotsBaromVisibWave heightAir tempDewpointWater temp
2014-Aug-16 05:33N 17°31' W 063°05'2316.3
2014-Aug-16 04:10N 17°54' W 063°06'7 7.8
2014-Aug-16 03:12N 18°01' W 063°03'0 0.0
2014-Aug-16 02:08N 18°01' W 063°03'0 0.0
2014-Aug-16 00:26N 18°01' W 063°03'0 0.0
2014-Aug-15 23:29N 18°01' W 063°03'2 0.2
2014-Aug-15 14:24N 18°00' W 063°04'5 5.0
2014-Aug-15 13:29N 17°57' W 063°01'  
2014-Aug-11 04:04N 36°25' W 030°59'1319.9
2014-Aug-11 03:25N 36°31' W 030°45'1919.5
2014-Aug-11 02:27N 36°38' W 030°23'1819.2
2014-Aug-11 01:31N 36°45' W 030°03'2419.1
2014-Aug-11 00:15N 36°55' W 029°35'1519.4
2014-Aug-10 23:30N 37°01' W 029°19'1819.4
2014-Aug-10 22:33N 37°08' W 028°57'2019.5
2014-Aug-10 21:33N 37°16' W 028°35'1919.5
2014-Aug-10 20:33N 37°24' W 028°12'1919.3
2014-Aug-10 19:33N 37°31' W 027°50'2019.6
2014-Aug-10 18:34N 37°39' W 027°27'1919.4
2014-Aug-10 17:33N 37°46' W 027°04'1919.4
2014-Aug-10 16:33N 37°53' W 026°42'1918.9
2014-Aug-10 15:33N 38°00' W 026°19'1919.0
2014-Aug-10 14:33N 38°11' W 025°60'1918.9
2014-Aug-10 13:33N 38°22' W 025°40'1918.8
2014-Aug-10 12:33N 38°33' W 025°21'1918.8
2014-Aug-10 11:33N 38°44' W 025°01'1918.7
2014-Aug-10 10:34N 38°55' W 024°42'2018.9
2014-Aug-10 09:31N 39°07' W 024°21'2119.1
2014-Aug-10 08:25N 39°19' W 023°59'2019.0
2014-Aug-10 07:23N 39°31' W 023°39'1619.0
2014-Aug-10 06:33N 39°40' W 023°22'93619.1
2014-Aug-08 05:33N 48°54' W 005°49'15719.4
2014-Aug-07 21:29N 50°03' W 002°13'1920.2
2014-Aug-07 20:33N 49°57' W 001°45'2019.6
2014-Aug-07 19:33N 49°50' W 001°17'1918.5
2014-Aug-07 18:33N 49°43' W 000°50'1818.0
2014-Aug-07 17:33N 49°37' W 000°24'1515.3
2014-Aug-07 16:33N 49°30' W 000°03'8 8.4
2014-Aug-07 15:33N 49°29' E 000°10'0 0.0
2014-Aug-07 14:31N 49°29' E 000°10'0 0.0
2014-Aug-07 13:28N 49°29' E 000°10'0 0.0
2014-Aug-07 12:31N 49°29' E 000°10'0 0.0
2014-Aug-07 11:31N 49°29' E 000°10'0 0.0
2014-Aug-07 10:31N 49°29' E 000°10'0 0.0
2014-Aug-07 09:31N 49°29' E 000°10'0 0.0
2014-Aug-07 08:31N 49°29' E 000°10'0 0.0
2014-Aug-07 07:31N 49°29' E 000°10'0 0.0
2014-Aug-07 06:31N 49°29' E 000°10'0 0.0
2014-Aug-07 05:31N 49°29' E 000°10'0 0.0
2014-Aug-07 04:31N 49°29' E 000°10'0 0.0
2014-Aug-07 03:31N 49°29' E 000°10'0 0.0
2014-Aug-07 02:31N 49°29' E 000°10'0 0.0
2014-Aug-07 01:31N 49°29' E 000°10'0 0.0
2014-Aug-07 00:31N 49°29' E 000°10'0 0.0
2014-Aug-06 23:31N 49°29' E 000°10'0 0.0
2014-Aug-06 22:31N 49°29' E 000°10'0 0.0
2014-Aug-06 21:31N 49°29' E 000°10'0 0.0
2014-Aug-06 20:31N 49°29' E 000°10'0 0.0
2014-Aug-06 19:31N 49°29' E 000°10'0 0.0
2014-Aug-06 18:31N 49°29' E 000°10'0 0.0
2014-Aug-06 17:31N 49°29' E 000°10'0 0.0
2014-Aug-06 16:31N 49°29' E 000°10'0 0.0
2014-Aug-06 15:31N 49°29' E 000°10'0 0.0
2014-Aug-06 14:31N 49°29' E 000°10'0 0.0
2014-Aug-06 13:31N 49°29' E 000°10'0 0.0
2014-Aug-06 12:31N 49°29' E 000°10'0 0.0
2014-Aug-06 11:31N 49°29' E 000°10'0 0.0
2014-Aug-06 10:31N 49°29' E 000°10'0 0.0
2014-Aug-06 09:31N 49°29' E 000°10'3 3.3
2014-Aug-06 08:33N 49°29' E 000°05'1010.3
2014-Aug-06 07:34N 49°32' W 000°10'1312.8
2014-Aug-06 06:32N 49°46' W 000°11'  
Track history (hours):
 
Tides and Currents Weather Stations Pressure Air Temp Water Temp Dewpoint Dewpoint Depression Visibility Wind Speed Wind Dir Waves Ship Positions

CMA CGM Aristote

Last reported at 2014-Aug-16 05:33 UTC. Time now 2014-Aug-30 18:29 UTC.
Position N 17°31' W 063°05'.
Warning: this ship's position is 14 days out of date.

Length 170 m; draft 9.2 m.

Type: Ship (hazmat cat A). MMSI: 235054581.

Date/timePositionNaut miles runAvg speedWind from/ knotsBaromVisibWave heightAir tempDewpointWater temp
2014-Aug-16 05:33N 17°31' W 063°05'2316.3
2014-Aug-16 04:10N 17°54' W 063°06'7 7.8
2014-Aug-16 03:12N 18°01' W 063°03'0 0.0
2014-Aug-16 02:08N 18°01' W 063°03'0 0.0
2014-Aug-16 00:26N 18°01' W 063°03'0 0.0
2014-Aug-15 23:29N 18°01' W 063°03'2 0.2
2014-Aug-15 14:24N 18°00' W 063°04'5 5.0
2014-Aug-15 13:29N 17°57' W 063°01'  
2014-Aug-11 04:04N 36°25' W 030°59'1319.9
2014-Aug-11 03:25N 36°31' W 030°45'1919.5
2014-Aug-11 02:27N 36°38' W 030°23'1819.2
2014-Aug-11 01:31N 36°45' W 030°03'2419.1
2014-Aug-11 00:15N 36°55' W 029°35'1519.4
2014-Aug-10 23:30N 37°01' W 029°19'1819.4
2014-Aug-10 22:33N 37°08' W 028°57'2019.5
2014-Aug-10 21:33N 37°16' W 028°35'1919.5
2014-Aug-10 20:33N 37°24' W 028°12'1919.3
2014-Aug-10 19:33N 37°31' W 027°50'2019.6
2014-Aug-10 18:34N 37°39' W 027°27'1919.4
2014-Aug-10 17:33N 37°46' W 027°04'1919.4
2014-Aug-10 16:33N 37°53' W 026°42'1918.9
2014-Aug-10 15:33N 38°00' W 026°19'1919.0
2014-Aug-10 14:33N 38°11' W 025°60'1918.9
2014-Aug-10 13:33N 38°22' W 025°40'1918.8
2014-Aug-10 12:33N 38°33' W 025°21'1918.8
2014-Aug-10 11:33N 38°44' W 025°01'1918.7
2014-Aug-10 10:34N 38°55' W 024°42'2018.9
2014-Aug-10 09:31N 39°07' W 024°21'2119.1
2014-Aug-10 08:25N 39°19' W 023°59'2019.0
2014-Aug-10 07:23N 39°31' W 023°39'1619.0
2014-Aug-10 06:33N 39°40' W 023°22'93619.1
2014-Aug-08 05:33N 48°54' W 005°49'15719.4
2014-Aug-07 21:29N 50°03' W 002°13'1920.2
2014-Aug-07 20:33N 49°57' W 001°45'2019.6
2014-Aug-07 19:33N 49°50' W 001°17'1918.5
2014-Aug-07 18:33N 49°43' W 000°50'1818.0
2014-Aug-07 17:33N 49°37' W 000°24'1515.3
2014-Aug-07 16:33N 49°30' W 000°03'8 8.4
2014-Aug-07 15:33N 49°29' E 000°10'0 0.0
2014-Aug-07 14:31N 49°29' E 000°10'0 0.0
2014-Aug-07 13:28N 49°29' E 000°10'0 0.0
2014-Aug-07 12:31N 49°29' E 000°10'0 0.0
2014-Aug-07 11:31N 49°29' E 000°10'0 0.0
2014-Aug-07 10:31N 49°29' E 000°10'0 0.0
2014-Aug-07 09:31N 49°29' E 000°10'0 0.0
2014-Aug-07 08:31N 49°29' E 000°10'0 0.0
2014-Aug-07 07:31N 49°29' E 000°10'0 0.0
2014-Aug-07 06:31N 49°29' E 000°10'0 0.0
2014-Aug-07 05:31N 49°29' E 000°10'0 0.0
2014-Aug-07 04:31N 49°29' E 000°10'0 0.0
2014-Aug-07 03:31N 49°29' E 000°10'0 0.0
2014-Aug-07 02:31N 49°29' E 000°10'0 0.0
2014-Aug-07 01:31N 49°29' E 000°10'0 0.0
2014-Aug-07 00:31N 49°29' E 000°10'0 0.0
2014-Aug-06 23:31N 49°29' E 000°10'0 0.0
2014-Aug-06 22:31N 49°29' E 000°10'0 0.0
2014-Aug-06 21:31N 49°29' E 000°10'0 0.0
2014-Aug-06 20:31N 49°29' E 000°10'0 0.0
2014-Aug-06 19:31N 49°29' E 000°10'0 0.0
2014-Aug-06 18:31N 49°29' E 000°10'0 0.0
2014-Aug-06 17:31N 49°29' E 000°10'0 0.0
2014-Aug-06 16:31N 49°29' E 000°10'0 0.0
2014-Aug-06 15:31N 49°29' E 000°10'0 0.0
2014-Aug-06 14:31N 49°29' E 000°10'0 0.0
2014-Aug-06 13:31N 49°29' E 000°10'0 0.0
2014-Aug-06 12:31N 49°29' E 000°10'0 0.0
2014-Aug-06 11:31N 49°29' E 000°10'0 0.0
2014-Aug-06 10:31N 49°29' E 000°10'0 0.0
2014-Aug-06 09:31N 49°29' E 000°10'3 3.3
2014-Aug-06 08:33N 49°29' E 000°05'1010.3
2014-Aug-06 07:34N 49°32' W 000°10'1312.8
2014-Aug-06 06:32N 49°46' W 000°11'  

Dump ship's entire track history